createdAt,value
2018-04-01T00:01:32.732Z,8.20
2018-04-01T00:03:59.539Z,7.80
2018-04-01T00:06:25.594Z,7.90
2018-04-01T00:08:51.643Z,7.80
2018-04-01T00:11:17.714Z,7.80
2018-04-01T00:13:43.773Z,8.10
2018-04-01T00:16:10.575Z,8.00
2018-04-01T00:18:36.640Z,7.60
2018-04-01T00:21:03.427Z,7.60
2018-04-01T00:23:29.513Z,7.50
2018-04-01T00:25:56.315Z,7.50
2018-04-01T00:28:22.354Z,7.60
2018-04-01T00:30:48.433Z,7.80
2018-04-01T00:33:14.503Z,7.70
2018-04-01T00:35:40.559Z,7.50
2018-04-01T00:38:06.595Z,7.60
2018-04-01T00:40:32.653Z,7.40
2018-04-01T00:42:58.679Z,7.20
2018-04-01T00:45:24.734Z,7.50
2018-04-01T00:47:51.555Z,7.30
2018-04-01T00:50:17.619Z,7.40
2018-04-01T00:52:43.685Z,7.20
2018-04-01T00:55:09.736Z,7.30
2018-04-01T00:57:35.782Z,7.50
2018-04-01T01:00:02.598Z,7.50
2018-04-01T01:02:28.647Z,7.40
2018-04-01T01:04:55.461Z,7.60
2018-04-01T01:07:21.501Z,7.60
2018-04-01T01:09:47.550Z,7.50
2018-04-01T01:12:14.365Z,7.50
2018-04-01T01:14:40.401Z,7.70
2018-04-01T01:17:07.227Z,7.50
2018-04-01T01:19:33.279Z,7.60
2018-04-01T01:22:00.114Z,7.70
2018-04-01T01:24:26.160Z,7.50
2018-04-01T01:26:52.268Z,7.40
2018-04-01T01:29:19.088Z,7.50
2018-04-01T01:31:45.191Z,7.70
2018-04-01T01:34:11.237Z,7.40
2018-04-01T01:36:37.364Z,7.20
2018-04-01T01:39:03.420Z,7.30
2018-04-01T01:41:29.524Z,7.40
2018-04-01T01:43:56.373Z,7.20
2018-04-01T01:46:23.187Z,7.50
2018-04-01T01:48:49.346Z,7.20
2018-04-01T01:51:15.432Z,7.40
2018-04-01T01:53:41.546Z,7.20
2018-04-01T01:56:07.619Z,7.40
2018-04-01T01:58:33.675Z,7.40
2018-04-01T02:00:59.723Z,7.50
2018-04-01T02:03:25.793Z,7.70
2018-04-01T02:05:52.620Z,7.50
2018-04-01T02:08:18.695Z,7.60
2018-04-01T02:10:44.752Z,7.50
2018-04-01T02:13:10.805Z,7.80
2018-04-01T02:15:36.864Z,7.40
2018-04-01T02:18:02.920Z,7.70
2018-04-01T02:20:29.844Z,7.60
2018-04-01T02:22:56.348Z,7.40
2018-04-01T02:25:23.149Z,7.50
2018-04-01T02:27:49.244Z,7.50
2018-04-01T02:30:15.288Z,7.60
2018-04-01T02:32:41.345Z,7.20
2018-04-01T02:35:07.415Z,7.30
2018-04-01T02:37:33.500Z,7.60
2018-04-01T02:39:59.539Z,7.70
2018-04-01T02:42:26.328Z,7.20
2018-04-01T02:44:52.395Z,7.40
2018-04-01T02:47:18.436Z,7.20
2018-04-01T02:49:45.266Z,7.20
2018-04-01T02:52:11.300Z,7.20
2018-04-01T02:54:38.100Z,7.20
2018-04-01T02:57:04.147Z,7.50
2018-04-01T02:59:30.195Z,7.70
2018-04-01T03:01:56.985Z,7.70
2018-04-01T03:04:23.060Z,7.60
2018-04-01T03:06:49.132Z,7.50
2018-04-01T03:09:15.177Z,7.70
2018-04-01T03:11:41.246Z,7.50
2018-04-01T03:14:07.285Z,7.60
2018-04-01T03:16:33.335Z,7.50
2018-04-01T03:18:59.404Z,7.70
2018-04-01T03:21:26.688Z,7.70
2018-04-01T03:23:52.739Z,7.70
2018-04-01T03:26:18.808Z,7.50
2018-04-01T03:28:45.615Z,7.40
2018-04-01T03:31:11.663Z,7.70
2018-04-01T03:33:38.471Z,7.80
2018-04-01T03:36:05.303Z,7.80
2018-04-01T03:38:31.362Z,7.70
2018-04-01T03:40:57.428Z,7.80
2018-04-01T03:43:23.492Z,7.50
2018-04-01T03:45:49.564Z,7.70
2018-04-01T03:48:16.352Z,7.70
2018-04-01T03:50:42.392Z,7.80
2018-04-01T03:53:08.431Z,8.10
2018-04-01T03:55:34.483Z,8.00
2018-04-01T03:58:01.271Z,7.80
2018-04-01T04:00:27.314Z,8.10
2018-04-01T04:02:53.418Z,8.00
2018-04-01T04:05:19.481Z,7.80
2018-04-01T04:07:46.292Z,7.70
2018-04-01T04:10:12.375Z,7.70
2018-04-01T04:12:38.414Z,7.80
2018-04-01T04:15:04.463Z,7.50
2018-04-01T04:17:31.311Z,7.90
2018-04-01T04:19:57.326Z,8.00
2018-04-01T04:22:23.391Z,7.90
2018-04-01T04:24:49.447Z,7.50
2018-04-01T04:27:15.527Z,8.00
2018-04-01T04:29:41.881Z,7.60
2018-04-01T04:32:07.940Z,7.40
2018-04-01T04:34:33.988Z,7.50
2018-04-01T04:37:00.048Z,7.70
2018-04-01T04:39:26.831Z,7.90
2018-04-01T04:41:52.872Z,7.80
2018-04-01T04:44:18.935Z,7.80
2018-04-01T04:46:45.711Z,7.90
2018-04-01T04:49:11.763Z,7.60
2018-04-01T04:51:37.834Z,7.80
2018-04-01T04:54:04.614Z,7.80
2018-04-01T04:56:30.696Z,7.80
2018-04-01T04:58:57.506Z,7.80
2018-04-01T05:01:23.578Z,7.80
2018-04-01T05:03:49.635Z,7.50
2018-04-01T05:06:15.680Z,8.00
2018-04-01T05:08:42.478Z,7.50
2018-04-01T05:11:08.536Z,7.80
2018-04-01T05:13:34.595Z,7.70
2018-04-01T05:16:00.639Z,7.70
2018-04-01T05:18:26.683Z,7.80
2018-04-01T05:20:52.760Z,7.80
2018-04-01T05:23:18.823Z,7.70
2018-04-01T05:25:44.895Z,7.80
2018-04-01T05:28:10.960Z,7.50
2018-04-01T05:30:37.744Z,7.60
2018-04-01T05:33:03.811Z,7.40
2018-04-01T05:35:29.862Z,7.50
2018-04-01T05:37:56.180Z,7.60
2018-04-01T05:40:22.950Z,7.60
2018-04-01T05:42:49.011Z,7.40
2018-04-01T05:45:15.120Z,7.40
2018-04-01T05:47:41.175Z,7.50
2018-04-01T05:50:07.239Z,7.70
2018-04-01T05:52:33.271Z,7.60
2018-04-01T05:54:59.307Z,7.40
2018-04-01T05:57:25.364Z,7.20
2018-04-01T05:59:51.408Z,7.40
2018-04-01T06:02:18.228Z,7.70
2018-04-01T06:04:44.271Z,7.70
2018-04-01T06:07:11.067Z,7.70
2018-04-01T06:09:37.102Z,7.70
2018-04-01T06:12:03.158Z,7.50
2018-04-01T06:14:29.201Z,7.80
2018-04-01T06:16:55.976Z,7.40
2018-04-01T06:19:22.033Z,7.60
2018-04-01T06:21:48.091Z,7.50
2018-04-01T06:24:14.897Z,7.60
2018-04-01T06:26:42.196Z,7.50
2018-04-01T06:29:08.246Z,7.60
2018-04-01T06:31:34.314Z,7.50
2018-04-01T06:34:00.397Z,7.40
2018-04-01T06:36:27.219Z,7.80
2018-04-01T06:38:53.271Z,7.70
2018-04-01T06:41:19.352Z,7.90
2018-04-01T06:43:46.148Z,7.90
2018-04-01T06:46:12.181Z,7.90
2018-04-01T06:48:38.263Z,7.70
2018-04-01T06:51:04.319Z,7.80
2018-04-01T06:53:30.384Z,7.70
2018-04-01T06:55:57.183Z,7.80
2018-04-01T06:58:23.237Z,7.70
2018-04-01T07:00:49.306Z,7.70
2018-04-01T07:03:15.355Z,7.50
2018-04-01T07:05:41.452Z,7.60
2018-04-01T07:08:07.504Z,7.40
2018-04-01T07:10:33.551Z,7.20
2018-04-01T07:12:59.606Z,7.40
2018-04-01T07:15:26.396Z,7.10
2018-04-01T07:17:52.485Z,7.20
2018-04-01T07:20:19.278Z,7.20
2018-04-01T07:22:45.331Z,7.30
2018-04-01T07:25:12.164Z,7.20
2018-04-01T07:27:39.122Z,7.30
2018-04-01T07:30:05.937Z,7.00
2018-04-01T07:32:31.983Z,6.80
2018-04-01T07:34:58.799Z,6.80
2018-04-01T07:37:24.867Z,6.90
2018-04-01T07:39:51.675Z,6.90
2018-04-01T07:42:17.784Z,7.00
2018-04-01T07:44:43.828Z,7.00
2018-04-01T07:47:09.882Z,7.20
2018-04-01T07:49:36.672Z,7.60
2018-04-01T07:52:02.735Z,7.50
2018-04-01T07:54:28.799Z,7.10
2018-04-01T07:56:54.860Z,7.40
2018-04-01T07:59:20.914Z,7.30
2018-04-01T08:01:47.743Z,7.70
2018-04-01T08:04:13.803Z,7.50
2018-04-01T08:06:40.627Z,7.10
2018-04-01T08:09:07.412Z,7.20
2018-04-01T08:11:33.494Z,7.50
2018-04-01T08:14:00.292Z,7.40
2018-04-01T08:16:26.337Z,7.50
2018-04-01T08:18:53.175Z,7.60
2018-04-01T08:21:19.227Z,7.50
2018-04-01T08:23:46.060Z,7.50
2018-04-01T08:26:12.147Z,7.70
2018-04-01T08:28:38.269Z,7.70
2018-04-01T08:31:04.316Z,7.50
2018-04-01T08:33:30.366Z,7.80
2018-04-01T08:35:56.415Z,7.40
2018-04-01T08:38:22.507Z,7.40
2018-04-01T08:40:48.568Z,7.70
2018-04-01T08:43:14.634Z,7.60
2018-04-01T08:45:40.684Z,7.40
2018-04-01T08:48:06.722Z,7.60
2018-04-01T08:50:33.528Z,7.50
2018-04-01T08:52:59.571Z,7.70
2018-04-01T08:55:25.639Z,7.50
2018-04-01T08:57:51.683Z,7.70
2018-04-01T09:00:17.744Z,7.60
2018-04-01T09:02:43.814Z,7.60
2018-04-01T09:05:09.876Z,7.60
2018-04-01T09:07:35.944Z,7.80
2018-04-01T09:10:02.740Z,7.80
2018-04-01T09:12:28.787Z,7.70
2018-04-01T09:14:54.891Z,7.90
2018-04-01T09:17:20.972Z,7.80
2018-04-01T09:19:47.028Z,8.10
2018-04-01T09:22:13.121Z,7.70
2018-04-01T09:24:39.911Z,7.70
2018-04-01T09:27:06.472Z,7.90
2018-04-01T09:29:32.571Z,7.90
2018-04-01T09:31:58.627Z,7.80
2018-04-01T09:34:25.443Z,7.70
2018-04-01T09:36:51.529Z,7.90
2018-04-01T09:39:17.583Z,7.80
2018-04-01T09:41:43.639Z,7.70
2018-04-01T09:44:10.453Z,7.70
2018-04-01T09:46:36.730Z,7.80
2018-04-01T09:49:03.560Z,7.80
2018-04-01T09:51:30.372Z,7.70
2018-04-01T09:53:56.435Z,7.50
2018-04-01T09:56:22.511Z,7.40
2018-04-01T09:58:48.611Z,7.40
2018-04-01T10:01:14.856Z,7.40
2018-04-01T10:03:41.128Z,7.50
2018-04-01T10:06:08.162Z,7.60
2018-04-01T10:08:34.724Z,7.50
2018-04-01T10:11:01.747Z,7.60
2018-04-01T10:13:27.995Z,7.60
2018-04-01T10:15:55.006Z,7.60
2018-04-01T10:18:21.256Z,7.50
2018-04-01T10:20:48.280Z,7.80
2018-04-01T10:23:14.543Z,7.60
2018-04-01T10:25:40.783Z,7.50
2018-04-01T10:28:07.814Z,7.50
2018-04-01T10:30:34.105Z,7.90
2018-04-01T10:33:00.376Z,7.80
2018-04-01T10:35:27.372Z,7.80
2018-04-01T10:37:53.623Z,8.00
2018-04-01T10:40:19.874Z,7.90
2018-04-01T10:42:46.123Z,7.80
2018-04-01T10:45:13.150Z,7.80
2018-04-01T10:47:39.420Z,8.00
2018-04-01T10:50:05.663Z,7.90
2018-04-01T10:52:31.927Z,8.10
2018-04-01T10:54:58.006Z,7.80
2018-04-01T10:57:24.236Z,8.00
2018-04-01T10:59:50.300Z,7.80
2018-04-01T11:02:16.365Z,7.80
2018-04-01T11:04:43.220Z,8.00
2018-04-01T11:07:09.271Z,7.80
2018-04-01T11:09:35.365Z,8.00
2018-04-01T11:12:01.408Z,7.90
2018-04-01T11:14:27.504Z,7.90
2018-04-01T11:16:54.300Z,8.00
2018-04-01T11:19:20.352Z,7.80
2018-04-01T11:21:46.415Z,8.10
2018-04-01T11:24:12.468Z,8.00
2018-04-01T11:26:38.540Z,7.70
2018-04-01T11:29:05.343Z,8.00
2018-04-01T11:31:31.425Z,7.90
2018-04-01T11:33:58.175Z,7.70
2018-04-01T11:36:24.979Z,8.30
2018-04-01T11:38:51.047Z,8.30
2018-04-01T11:41:17.094Z,8.20
2018-04-01T11:43:43.203Z,8.30
2018-04-01T11:46:09.992Z,8.20
2018-04-01T11:48:36.043Z,8.10
2018-04-01T11:51:02.261Z,8.20
2018-04-01T11:53:28.319Z,8.30
2018-04-01T11:55:54.480Z,8.20
2018-04-01T11:58:20.527Z,8.30
2018-04-01T12:00:46.583Z,8.00
2018-04-01T12:03:13.383Z,8.20
2018-04-01T12:05:39.441Z,8.20
2018-04-01T12:08:06.251Z,8.30
2018-04-01T12:10:32.288Z,8.10
2018-04-01T12:12:58.376Z,8.10
2018-04-01T12:15:24.450Z,8.10
2018-04-01T12:17:50.517Z,8.10
2018-04-01T12:20:16.575Z,8.30
2018-04-01T12:22:42.643Z,8.10
2018-04-01T12:25:09.499Z,8.30
2018-04-01T12:27:36.315Z,8.30
2018-04-01T12:30:02.396Z,8.10
2018-04-01T12:32:28.506Z,8.20
2018-04-01T12:34:54.601Z,8.60
2018-04-01T12:37:21.414Z,8.80
2018-04-01T12:39:47.485Z,8.80
2018-04-01T12:42:14.267Z,8.70
2018-04-01T12:44:40.580Z,8.60
2018-04-01T12:47:06.646Z,8.50
2018-04-01T12:49:32.689Z,8.80
2018-04-01T12:51:59.494Z,8.70
2018-04-01T12:54:25.568Z,8.50
2018-04-01T12:56:52.362Z,8.60
2018-04-01T12:59:18.423Z,8.50
2018-04-01T13:01:45.197Z,8.80
2018-04-01T13:04:11.255Z,8.50
2018-04-01T13:06:37.324Z,8.70
2018-04-01T13:09:04.127Z,8.80
2018-04-01T13:11:30.204Z,8.70
2018-04-01T13:13:56.260Z,8.50
2018-04-01T13:16:22.335Z,9.00
2018-04-01T13:18:49.123Z,9.20
2018-04-01T13:21:15.204Z,9.00
2018-04-01T13:23:41.979Z,9.50
2018-04-01T13:26:08.056Z,8.80
2018-04-01T13:28:34.127Z,9.30
2018-04-01T13:31:00.179Z,9.30
2018-04-01T13:33:26.265Z,9.80
2018-04-01T13:35:52.311Z,9.90
2018-04-01T13:38:18.374Z,10.30
2018-04-01T13:40:44.486Z,10.20
2018-04-01T13:43:10.495Z,10.10
2018-04-01T13:45:36.563Z,10.10
2018-04-01T13:48:02.597Z,10.40
2018-04-01T13:50:29.467Z,10.70
2018-04-01T13:52:56.277Z,10.60
2018-04-01T13:55:23.078Z,10.00
2018-04-01T13:57:49.151Z,10.10
2018-04-01T14:00:15.943Z,10.00
2018-04-01T14:02:42.021Z,9.90
2018-04-01T14:05:08.087Z,9.80
2018-04-01T14:07:34.163Z,9.90
2018-04-01T14:10:00.972Z,9.30
2018-04-01T14:12:27.036Z,9.30
2018-04-01T14:14:53.094Z,9.40
2018-04-01T14:17:19.183Z,9.50
2018-04-01T14:19:45.978Z,9.80
2018-04-01T14:22:12.099Z,9.70
2018-04-01T14:24:38.208Z,9.30
2018-04-01T14:27:04.255Z,9.30
2018-04-01T14:29:30.344Z,9.30
2018-04-01T14:31:56.401Z,9.50
2018-04-01T14:34:22.447Z,9.40
2018-04-01T14:36:48.515Z,9.20
2018-04-01T14:39:14.575Z,9.20
2018-04-01T14:41:40.611Z,8.90
2018-04-01T14:44:06.695Z,9.20
2018-04-01T14:46:32.747Z,8.90
2018-04-01T14:48:58.860Z,8.90
2018-04-01T14:51:24.923Z,8.80
2018-04-01T14:53:50.963Z,8.90
2018-04-01T14:56:17.019Z,8.90
2018-04-01T14:58:43.076Z,8.50
2018-04-01T15:01:09.127Z,8.60
2018-04-01T15:03:35.192Z,8.80
2018-04-01T15:06:01.231Z,8.60
2018-04-01T15:08:27.648Z,8.80
2018-04-01T15:10:53.715Z,8.60
2018-04-01T15:13:19.756Z,8.80
2018-04-01T15:15:45.841Z,8.60
2018-04-01T15:18:11.871Z,8.70
2018-04-01T15:20:37.951Z,8.80
2018-04-01T15:23:04.740Z,8.80
2018-04-01T15:25:30.786Z,9.20
2018-04-01T15:27:56.845Z,9.10
2018-04-01T15:30:23.648Z,8.60
2018-04-01T15:32:49.716Z,8.80
2018-04-01T15:35:16.495Z,8.90
2018-04-01T15:37:42.567Z,8.80
2018-04-01T15:40:09.384Z,8.90
2018-04-01T15:42:35.423Z,8.90
2018-04-01T15:45:01.529Z,8.90
2018-04-01T15:47:29.178Z,8.80
2018-04-01T15:49:55.283Z,9.00
2018-04-01T15:52:21.470Z,8.90
2018-04-01T15:54:47.543Z,8.50
2018-04-01T15:57:13.625Z,8.80
2018-04-01T15:59:39.681Z,8.50
2018-04-01T16:02:05.791Z,8.50
2018-04-01T16:04:31.855Z,8.20
2018-04-01T16:06:57.924Z,8.20
2018-04-01T16:09:24.763Z,8.30
2018-04-01T16:11:51.602Z,8.20
2018-04-01T16:14:17.654Z,8.20
2018-04-01T16:16:43.720Z,8.10
2018-04-01T16:19:09.831Z,8.20
2018-04-01T16:21:35.908Z,8.10
2018-04-01T16:24:01.959Z,8.10
2018-04-01T16:26:28.013Z,8.20
2018-04-01T16:28:54.100Z,8.20
2018-04-01T16:31:20.903Z,8.20
2018-04-01T16:33:47.012Z,8.00
2018-04-01T16:36:13.088Z,8.30
2018-04-01T16:38:39.967Z,7.90
2018-04-01T16:41:06.031Z,7.90
2018-04-01T16:43:32.123Z,7.90
2018-04-01T16:45:58.195Z,7.80
2018-04-01T16:48:24.239Z,8.30
2018-04-01T16:50:51.064Z,8.30
2018-04-01T16:53:17.103Z,8.20
2018-04-01T16:55:43.939Z,8.20
2018-04-01T16:58:10.764Z,8.30
2018-04-01T17:00:36.824Z,8.20
2018-04-01T17:03:02.887Z,8.20
2018-04-01T17:05:28.953Z,8.30
2018-04-01T17:07:55.767Z,8.60
2018-04-01T17:10:21.833Z,8.60
2018-04-01T17:12:47.892Z,8.50
2018-04-01T17:15:13.979Z,8.40
2018-04-01T17:17:40.796Z,8.70
2018-04-01T17:20:06.860Z,8.50
2018-04-01T17:22:32.926Z,8.20
2018-04-01T17:24:58.992Z,8.30
2018-04-01T17:27:25.831Z,8.20
2018-04-01T17:29:52.657Z,8.30
2018-04-01T17:32:18.820Z,8.40
2018-04-01T17:34:45.108Z,8.20
2018-04-01T17:37:12.182Z,8.20
2018-04-01T17:39:38.293Z,8.30
2018-04-01T17:42:04.375Z,8.40
2018-04-01T17:44:30.429Z,8.20
2018-04-01T17:46:56.503Z,8.10
2018-04-01T17:49:22.612Z,8.20
2018-04-01T17:51:49.419Z,8.20
2018-04-01T17:54:15.454Z,8.10
2018-04-01T17:56:42.275Z,8.20
2018-04-01T17:59:08.343Z,8.00
2018-04-01T18:01:34.415Z,8.10
2018-04-01T18:04:00.459Z,8.10
2018-04-01T18:06:26.535Z,8.30
2018-04-01T18:08:52.577Z,8.20
2018-04-01T18:11:18.653Z,8.30
2018-04-01T18:13:45.632Z,8.30
2018-04-01T18:16:11.714Z,8.10
2018-04-01T18:18:37.846Z,8.50
2018-04-01T18:21:04.007Z,8.20
2018-04-01T18:23:30.063Z,8.40
2018-04-01T18:25:56.113Z,8.20
2018-04-01T18:28:22.172Z,8.20
2018-04-01T18:30:48.980Z,8.30
2018-04-01T18:33:15.043Z,8.30
2018-04-01T18:35:41.075Z,8.30
2018-04-01T18:38:07.141Z,8.20
2018-04-01T18:40:33.187Z,8.40
2018-04-01T18:42:59.243Z,8.10
2018-04-01T18:45:25.323Z,8.10
2018-04-01T18:47:51.399Z,8.10
2018-04-01T18:52:51.088Z,8.20
2018-04-01T18:55:17.175Z,8.10
2018-04-01T18:57:43.215Z,8.20
2018-04-01T19:00:09.305Z,8.00
2018-04-01T19:02:35.424Z,8.20
2018-04-01T19:05:01.504Z,8.10
2018-04-01T19:07:27.548Z,8.00
2018-04-01T19:09:54.354Z,7.90
2018-04-01T19:12:20.402Z,7.80
2018-04-01T19:14:46.634Z,7.80
2018-04-01T19:17:12.887Z,7.80
2018-04-01T19:19:39.908Z,8.30
2018-04-01T19:22:06.931Z,7.90
2018-04-01T19:24:33.216Z,8.00
2018-04-01T19:26:59.483Z,7.80
2018-04-01T19:29:25.763Z,8.20
2018-04-01T19:31:52.756Z,8.20
2018-04-01T19:34:19.004Z,8.10
2018-04-01T19:36:45.263Z,8.20
2018-04-01T19:39:12.264Z,8.10
2018-04-01T19:41:38.568Z,8.30
2018-04-01T19:44:04.815Z,8.10
2018-04-01T19:46:31.091Z,8.20
2018-04-01T19:48:57.396Z,8.30
2018-04-01T19:51:23.648Z,8.10
2018-04-01T19:53:49.919Z,8.20
2018-04-01T19:56:16.216Z,7.80
2018-04-01T19:58:42.456Z,8.00
2018-04-01T20:01:09.448Z,7.80
2018-04-01T20:03:35.708Z,7.80
2018-04-01T20:06:01.980Z,7.70
2018-04-01T20:08:28.223Z,7.90
2018-04-01T20:10:54.476Z,7.90
2018-04-01T20:13:20.747Z,7.70
2018-04-01T20:15:47.743Z,8.00
2018-04-01T20:18:14.036Z,8.00
2018-04-01T20:20:41.050Z,7.40
2018-04-01T20:23:07.299Z,7.50
2018-04-01T20:25:34.271Z,8.00
2018-04-01T20:28:00.533Z,7.70
2018-04-01T20:30:26.797Z,7.50
2018-04-01T20:32:53.804Z,7.80
2018-04-01T20:35:20.050Z,7.70
2018-04-01T20:37:46.319Z,7.80
2018-04-01T20:40:12.582Z,7.50
2018-04-01T20:42:38.871Z,7.90
2018-04-01T20:45:05.852Z,7.70
2018-04-01T20:47:32.080Z,7.90
2018-04-01T20:49:58.363Z,7.80
2018-04-01T20:52:24.567Z,7.70
2018-04-01T20:54:50.819Z,7.90
2018-04-01T20:57:17.068Z,7.80
2018-04-01T20:59:44.079Z,7.90
2018-04-01T21:02:10.327Z,7.90
2018-04-01T21:04:37.340Z,7.90
2018-04-01T21:07:03.633Z,7.80
2018-04-01T21:09:29.926Z,8.00
2018-04-01T21:11:56.195Z,7.80
2018-04-01T21:14:22.462Z,7.90
2018-04-01T21:16:48.714Z,7.90
2018-04-01T21:19:15.003Z,7.90
2018-04-01T21:21:41.258Z,8.00
2018-04-01T21:24:07.536Z,7.70
2018-04-01T21:26:33.948Z,7.70
2018-04-01T21:29:01.404Z,7.80
2018-04-01T21:31:27.700Z,7.70
2018-04-01T21:33:54.100Z,7.90
2018-04-01T21:36:20.459Z,7.80
2018-04-01T21:38:46.708Z,7.60
2018-04-01T21:41:12.960Z,7.80
2018-04-01T21:43:39.959Z,7.80
2018-04-01T21:46:07.018Z,7.50
2018-04-01T21:48:33.270Z,7.80
2018-04-01T21:50:59.548Z,7.40
2018-04-01T21:53:25.824Z,7.50
2018-04-01T21:55:52.079Z,7.60
2018-04-01T21:58:18.348Z,7.70
2018-04-01T22:00:44.659Z,7.50
2018-04-01T22:03:10.902Z,7.60
2018-04-01T22:05:37.161Z,7.60
2018-04-01T22:08:03.435Z,7.40
2018-04-01T22:10:29.686Z,7.50
2018-04-01T22:12:55.952Z,7.70
2018-04-01T22:15:22.183Z,7.50
2018-04-01T22:17:48.453Z,7.40
2018-04-01T22:20:14.702Z,7.50
2018-04-01T22:22:53.148Z,7.30
2018-04-01T22:25:19.415Z,7.20
2018-04-01T22:27:46.499Z,7.10
2018-04-01T22:30:12.756Z,7.10
2018-04-01T22:32:39.004Z,7.50
2018-04-01T22:35:05.244Z,7.70
2018-04-01T22:37:31.527Z,7.40
2018-04-01T22:39:57.779Z,7.40
2018-04-01T22:42:24.021Z,7.50
2018-04-01T22:44:51.027Z,7.10
2018-04-01T22:47:17.280Z,7.40
2018-04-01T22:49:43.563Z,7.50
2018-04-01T22:52:09.827Z,7.40
2018-04-01T22:54:36.125Z,7.20
2018-04-01T22:57:02.408Z,7.20
2018-04-01T22:59:28.668Z,7.30
2018-04-01T23:01:54.923Z,7.10
2018-04-01T23:04:21.187Z,7.20
2018-04-01T23:06:47.448Z,7.50
2018-04-01T23:09:14.473Z,7.50
2018-04-01T23:11:40.735Z,7.50
2018-04-01T23:14:07.761Z,7.50
2018-04-01T23:16:34.015Z,7.70
2018-04-01T23:19:00.999Z,7.40
2018-04-01T23:21:27.268Z,7.20
2018-04-01T23:23:53.566Z,7.20
2018-04-01T23:26:19.835Z,7.30
2018-04-01T23:28:48.012Z,7.10
2018-04-01T23:31:14.327Z,7.20
2018-04-01T23:33:40.604Z,7.30
2018-04-01T23:36:06.891Z,7.20
2018-04-01T23:38:33.135Z,7.20
2018-04-01T23:41:00.180Z,7.10
2018-04-01T23:43:27.206Z,7.40
2018-04-01T23:45:53.480Z,7.40
2018-04-01T23:48:19.772Z,7.50
2018-04-01T23:50:46.038Z,7.50
2018-04-01T23:53:12.268Z,7.80
2018-04-01T23:55:38.571Z,7.40
2018-04-01T23:58:05.593Z,7.50
